sensor_id;sensor_type;location;lat;lon;timestamp;P1;durP1;ratioP1;P2;durP2;ratioP2
25381;SDS011;16307;42.896;20.874;2022-12-05T00:02:15;105.40;;;53.92;;
25381;SDS011;16307;42.896;20.874;2022-12-05T00:05:01;93.50;;;50.65;;
25381;SDS011;16307;42.896;20.874;2022-12-05T00:07:47;78.70;;;41.35;;
25381;SDS011;16307;42.896;20.874;2022-12-05T00:10:37;79.00;;;39.20;;
25381;SDS011;16307;42.896;20.874;2022-12-05T00:13:23;68.45;;;37.13;;
25381;SDS011;16307;42.896;20.874;2022-12-05T00:16:10;64.13;;;36.05;;
25381;SDS011;16307;42.896;20.874;2022-12-05T00:18:59;63.20;;;35.63;;
25381;SDS011;16307;42.896;20.874;2022-12-05T00:21:45;62.17;;;35.65;;
25381;SDS011;16307;42.896;20.874;2022-12-05T00:24:31;61.42;;;33.63;;
25381;SDS011;16307;42.896;20.874;2022-12-05T00:27:17;63.83;;;34.30;;
25381;SDS011;16307;42.896;20.874;2022-12-05T00:30:04;65.30;;;35.40;;
25381;SDS011;16307;42.896;20.874;2022-12-05T00:32:50;60.22;;;33.22;;
25381;SDS011;16307;42.896;20.874;2022-12-05T00:35:36;58.75;;;32.08;;
25381;SDS011;16307;42.896;20.874;2022-12-05T00:38:22;56.40;;;31.50;;
25381;SDS011;16307;42.896;20.874;2022-12-05T00:41:10;56.00;;;29.85;;
25381;SDS011;16307;42.896;20.874;2022-12-05T00:44:00;52.45;;;30.17;;
25381;SDS011;16307;42.896;20.874;2022-12-05T00:46:47;55.10;;;29.90;;
25381;SDS011;16307;42.896;20.874;2022-12-05T00:49:33;53.53;;;30.88;;
25381;SDS011;16307;42.896;20.874;2022-12-05T00:52:19;51.05;;;29.23;;
25381;SDS011;16307;42.896;20.874;2022-12-05T00:55:05;49.17;;;29.35;;
25381;SDS011;16307;42.896;20.874;2022-12-05T00:57:51;51.72;;;29.35;;
25381;SDS011;16307;42.896;20.874;2022-12-05T01:00:37;56.42;;;28.60;;
25381;SDS011;16307;42.896;20.874;2022-12-05T01:03:23;49.97;;;28.33;;
25381;SDS011;16307;42.896;20.874;2022-12-05T01:06:09;48.42;;;27.50;;
25381;SDS011;16307;42.896;20.874;2022-12-05T01:08:57;44.70;;;24.58;;
25381;SDS011;16307;42.896;20.874;2022-12-05T01:11:43;42.05;;;24.88;;
25381;SDS011;16307;42.896;20.874;2022-12-05T01:14:30;43.90;;;25.20;;
25381;SDS011;16307;42.896;20.874;2022-12-05T01:17:16;46.58;;;26.17;;
25381;SDS011;16307;42.896;20.874;2022-12-05T01:20:02;45.50;;;25.77;;
25381;SDS011;16307;42.896;20.874;2022-12-05T01:22:48;42.00;;;24.90;;
25381;SDS011;16307;42.896;20.874;2022-12-05T01:25:34;44.03;;;26.00;;
25381;SDS011;16307;42.896;20.874;2022-12-05T01:28:20;47.78;;;26.80;;
25381;SDS011;16307;42.896;20.874;2022-12-05T01:31:17;52.08;;;29.17;;
25381;SDS011;16307;42.896;20.874;2022-12-05T01:34:06;53.70;;;29.88;;
25381;SDS011;16307;42.896;20.874;2022-12-05T01:36:54;57.22;;;30.63;;
25381;SDS011;16307;42.896;20.874;2022-12-05T01:39:40;55.95;;;31.95;;
25381;SDS011;16307;42.896;20.874;2022-12-05T01:42:26;62.00;;;32.85;;
25381;SDS011;16307;42.896;20.874;2022-12-05T01:45:24;55.67;;;31.13;;
25381;SDS011;16307;42.896;20.874;2022-12-05T01:48:18;53.05;;;31.25;;
25381;SDS011;16307;42.896;20.874;2022-12-05T01:51:06;53.15;;;29.10;;
25381;SDS011;16307;42.896;20.874;2022-12-05T01:53:52;58.30;;;31.25;;
25381;SDS011;16307;42.896;20.874;2022-12-05T01:56:38;52.53;;;30.27;;
25381;SDS011;16307;42.896;20.874;2022-12-05T01:59:26;49.45;;;29.45;;
25381;SDS011;16307;42.896;20.874;2022-12-05T02:02:14;52.15;;;29.40;;
25381;SDS011;16307;42.896;20.874;2022-12-05T02:05:08;61.20;;;33.05;;
25381;SDS011;16307;42.896;20.874;2022-12-05T02:08:00;63.60;;;34.65;;
25381;SDS011;16307;42.896;20.874;2022-12-05T02:10:49;63.08;;;34.47;;
25381;SDS011;16307;42.896;20.874;2022-12-05T02:19:49;48.33;;;27.00;;
25381;SDS011;16307;42.896;20.874;2022-12-05T02:31:47;45.65;;;26.38;;
25381;SDS011;16307;42.896;20.874;2022-12-05T02:34:59;57.25;;;29.77;;
25381;SDS011;16307;42.896;20.874;2022-12-05T02:43:56;54.25;;;29.85;;
25381;SDS011;16307;42.896;20.874;2022-12-05T02:46:45;56.15;;;30.52;;
25381;SDS011;16307;42.896;20.874;2022-12-05T02:49:32;55.85;;;30.13;;
25381;SDS011;16307;42.896;20.874;2022-12-05T02:52:20;51.65;;;28.42;;
25381;SDS011;16307;42.896;20.874;2022-12-05T02:55:07;49.53;;;27.23;;
25381;SDS011;16307;42.896;20.874;2022-12-05T02:57:54;51.75;;;27.67;;
25381;SDS011;16307;42.896;20.874;2022-12-05T03:00:44;47.08;;;27.23;;
25381;SDS011;16307;42.896;20.874;2022-12-05T03:03:34;48.20;;;27.70;;
25381;SDS011;16307;42.896;20.874;2022-12-05T03:06:22;45.78;;;26.15;;
25381;SDS011;16307;42.896;20.874;2022-12-05T03:12:04;48.90;;;27.33;;
25381;SDS011;16307;42.896;20.874;2022-12-05T03:14:57;50.08;;;27.80;;
25381;SDS011;16307;42.896;20.874;2022-12-05T03:20:55;54.58;;;27.52;;
25381;SDS011;16307;42.896;20.874;2022-12-05T03:24:05;51.83;;;29.40;;
25381;SDS011;16307;42.896;20.874;2022-12-05T03:33:02;49.85;;;28.17;;
25381;SDS011;16307;42.896;20.874;2022-12-05T03:39:32;55.67;;;29.38;;
25381;SDS011;16307;42.896;20.874;2022-12-05T03:42:11;47.72;;;28.52;;
25381;SDS011;16307;42.896;20.874;2022-12-05T03:50:36;66.15;;;33.28;;
25381;SDS011;16307;42.896;20.874;2022-12-05T03:56:58;70.60;;;32.95;;
25381;SDS011;16307;42.896;20.874;2022-12-05T04:05:36;50.03;;;29.27;;
25381;SDS011;16307;42.896;20.874;2022-12-05T04:11:18;55.90;;;30.30;;
25381;SDS011;16307;42.896;20.874;2022-12-05T04:14:07;60.38;;;30.80;;
25381;SDS011;16307;42.896;20.874;2022-12-05T04:17:00;59.10;;;29.83;;
25381;SDS011;16307;42.896;20.874;2022-12-05T04:19:58;61.90;;;29.98;;
25381;SDS011;16307;42.896;20.874;2022-12-05T04:23:22;57.90;;;28.73;;
25381;SDS011;16307;42.896;20.874;2022-12-05T04:26:11;52.25;;;27.55;;
25381;SDS011;16307;42.896;20.874;2022-12-05T04:29:16;51.97;;;26.52;;
25381;SDS011;16307;42.896;20.874;2022-12-05T04:34:54;51.03;;;27.98;;
25381;SDS011;16307;42.896;20.874;2022-12-05T04:37:44;49.35;;;28.45;;
25381;SDS011;16307;42.896;20.874;2022-12-05T04:40:33;66.47;;;31.52;;
25381;SDS011;16307;42.896;20.874;2022-12-05T04:43:23;55.88;;;29.27;;
25381;SDS011;16307;42.896;20.874;2022-12-05T04:46:10;57.13;;;31.55;;
25381;SDS011;16307;42.896;20.874;2022-12-05T04:48:59;98.18;;;48.92;;
25381;SDS011;16307;42.896;20.874;2022-12-05T04:51:46;72.47;;;38.92;;
25381;SDS011;16307;42.896;20.874;2022-12-05T04:54:46;62.45;;;36.53;;
25381;SDS011;16307;42.896;20.874;2022-12-05T04:57:36;62.83;;;33.08;;
25381;SDS011;16307;42.896;20.874;2022-12-05T05:00:27;60.97;;;31.02;;
25381;SDS011;16307;42.896;20.874;2022-12-05T05:03:19;55.97;;;29.73;;
25381;SDS011;16307;42.896;20.874;2022-12-05T05:06:06;52.72;;;30.83;;
25381;SDS011;16307;42.896;20.874;2022-12-05T05:08:53;53.88;;;30.35;;
25381;SDS011;16307;42.896;20.874;2022-12-05T05:11:41;69.90;;;35.10;;
25381;SDS011;16307;42.896;20.874;2022-12-05T05:14:26;62.95;;;33.45;;
25381;SDS011;16307;42.896;20.874;2022-12-05T05:17:12;63.90;;;34.15;;
25381;SDS011;16307;42.896;20.874;2022-12-05T05:19:58;58.45;;;32.38;;
25381;SDS011;16307;42.896;20.874;2022-12-05T05:23:04;55.05;;;30.75;;
25381;SDS011;16307;42.896;20.874;2022-12-05T05:25:51;54.63;;;30.63;;
25381;SDS011;16307;42.896;20.874;2022-12-05T05:28:38;59.30;;;32.78;;
25381;SDS011;16307;42.896;20.874;2022-12-05T05:31:24;55.92;;;32.10;;
25381;SDS011;16307;42.896;20.874;2022-12-05T05:34:11;61.60;;;31.30;;
25381;SDS011;16307;42.896;20.874;2022-12-05T05:36:57;54.78;;;29.48;;
25381;SDS011;16307;42.896;20.874;2022-12-05T05:39:43;54.78;;;31.02;;
25381;SDS011;16307;42.896;20.874;2022-12-05T05:42:29;55.80;;;31.30;;
25381;SDS011;16307;42.896;20.874;2022-12-05T05:45:15;63.25;;;32.17;;
25381;SDS011;16307;42.896;20.874;2022-12-05T05:48:01;52.00;;;29.27;;
25381;SDS011;16307;42.896;20.874;2022-12-05T05:50:48;60.33;;;32.55;;
25381;SDS011;16307;42.896;20.874;2022-12-05T05:53:34;59.55;;;32.72;;
25381;SDS011;16307;42.896;20.874;2022-12-05T05:56:20;64.53;;;34.13;;
25381;SDS011;16307;42.896;20.874;2022-12-05T05:59:06;60.25;;;33.30;;
25381;SDS011;16307;42.896;20.874;2022-12-05T06:01:53;66.40;;;35.05;;
25381;SDS011;16307;42.896;20.874;2022-12-05T06:04:39;68.50;;;35.83;;
25381;SDS011;16307;42.896;20.874;2022-12-05T06:07:25;64.85;;;36.35;;
25381;SDS011;16307;42.896;20.874;2022-12-05T06:10:12;79.28;;;40.83;;
25381;SDS011;16307;42.896;20.874;2022-12-05T06:12:58;71.45;;;39.83;;
25381;SDS011;16307;42.896;20.874;2022-12-05T06:15:45;77.43;;;39.42;;
25381;SDS011;16307;42.896;20.874;2022-12-05T06:18:30;84.07;;;45.53;;
25381;SDS011;16307;42.896;20.874;2022-12-05T06:21:16;90.18;;;46.58;;
25381;SDS011;16307;42.896;20.874;2022-12-05T06:24:03;88.13;;;47.47;;
25381;SDS011;16307;42.896;20.874;2022-12-05T06:26:49;90.90;;;49.35;;
25381;SDS011;16307;42.896;20.874;2022-12-05T06:29:35;79.63;;;44.33;;
25381;SDS011;16307;42.896;20.874;2022-12-05T06:32:21;77.97;;;41.63;;
25381;SDS011;16307;42.896;20.874;2022-12-05T06:35:07;76.50;;;41.38;;
25381;SDS011;16307;42.896;20.874;2022-12-05T06:37:59;72.70;;;40.67;;
25381;SDS011;16307;42.896;20.874;2022-12-05T06:40:46;63.72;;;35.97;;
25381;SDS011;16307;42.896;20.874;2022-12-05T06:43:32;67.57;;;37.58;;
25381;SDS011;16307;42.896;20.874;2022-12-05T06:46:19;63.33;;;34.67;;
25381;SDS011;16307;42.896;20.874;2022-12-05T06:49:05;61.78;;;34.40;;
25381;SDS011;16307;42.896;20.874;2022-12-05T06:51:52;55.20;;;31.33;;
25381;SDS011;16307;42.896;20.874;2022-12-05T06:54:38;52.22;;;28.73;;
25381;SDS011;16307;42.896;20.874;2022-12-05T06:57:24;52.58;;;29.15;;
25381;SDS011;16307;42.896;20.874;2022-12-05T07:00:10;45.75;;;27.85;;
25381;SDS011;16307;42.896;20.874;2022-12-05T07:03:15;48.38;;;27.48;;
25381;SDS011;16307;42.896;20.874;2022-12-05T07:06:02;53.83;;;29.55;;
25381;SDS011;16307;42.896;20.874;2022-12-05T07:08:50;55.50;;;29.27;;
25381;SDS011;16307;42.896;20.874;2022-12-05T07:11:37;57.75;;;28.05;;
25381;SDS011;16307;42.896;20.874;2022-12-05T07:14:23;51.35;;;28.75;;
25381;SDS011;16307;42.896;20.874;2022-12-05T07:17:29;40.83;;;25.52;;
25381;SDS011;16307;42.896;20.874;2022-12-05T07:20:16;49.35;;;26.80;;
25381;SDS011;16307;42.896;20.874;2022-12-05T07:23:02;49.63;;;27.20;;
25381;SDS011;16307;42.896;20.874;2022-12-05T07:25:48;41.17;;;23.83;;
25381;SDS011;16307;42.896;20.874;2022-12-05T07:28:34;39.63;;;24.02;;
25381;SDS011;16307;42.896;20.874;2022-12-05T07:31:21;48.60;;;26.30;;
25381;SDS011;16307;42.896;20.874;2022-12-05T07:34:08;46.20;;;25.42;;
25381;SDS011;16307;42.896;20.874;2022-12-05T07:36:53;41.30;;;24.42;;
25381;SDS011;16307;42.896;20.874;2022-12-05T07:39:39;41.65;;;24.92;;
25381;SDS011;16307;42.896;20.874;2022-12-05T07:42:25;54.55;;;26.63;;
25381;SDS011;16307;42.896;20.874;2022-12-05T07:45:11;46.22;;;25.40;;
25381;SDS011;16307;42.896;20.874;2022-12-05T07:47:57;48.45;;;25.50;;
25381;SDS011;16307;42.896;20.874;2022-12-05T07:50:43;43.97;;;25.75;;
25381;SDS011;16307;42.896;20.874;2022-12-05T07:53:29;42.85;;;23.15;;
25381;SDS011;16307;42.896;20.874;2022-12-05T07:56:16;48.20;;;23.75;;
25381;SDS011;16307;42.896;20.874;2022-12-05T07:59:03;42.88;;;24.45;;
25381;SDS011;16307;42.896;20.874;2022-12-05T08:01:49;43.83;;;24.58;;
25381;SDS011;16307;42.896;20.874;2022-12-05T08:04:35;46.85;;;25.98;;
25381;SDS011;16307;42.896;20.874;2022-12-05T08:07:21;40.45;;;24.48;;
25381;SDS011;16307;42.896;20.874;2022-12-05T08:10:07;52.90;;;29.30;;
25381;SDS011;16307;42.896;20.874;2022-12-05T08:12:54;53.38;;;28.42;;
25381;SDS011;16307;42.896;20.874;2022-12-05T08:15:40;49.47;;;28.33;;
25381;SDS011;16307;42.896;20.874;2022-12-05T08:18:26;54.00;;;29.00;;
25381;SDS011;16307;42.896;20.874;2022-12-05T08:21:13;49.97;;;27.35;;
25381;SDS011;16307;42.896;20.874;2022-12-05T08:24:02;49.03;;;26.63;;
25381;SDS011;16307;42.896;20.874;2022-12-05T08:26:49;47.85;;;24.52;;
25381;SDS011;16307;42.896;20.874;2022-12-05T08:29:35;47.55;;;25.92;;
25381;SDS011;16307;42.896;20.874;2022-12-05T08:32:22;46.92;;;24.45;;
25381;SDS011;16307;42.896;20.874;2022-12-05T08:35:08;41.28;;;23.33;;
25381;SDS011;16307;42.896;20.874;2022-12-05T08:37:54;37.33;;;22.98;;
25381;SDS011;16307;42.896;20.874;2022-12-05T08:40:40;47.42;;;22.88;;
25381;SDS011;16307;42.896;20.874;2022-12-05T08:43:26;39.92;;;22.70;;
25381;SDS011;16307;42.896;20.874;2022-12-05T08:46:13;45.38;;;26.45;;
25381;SDS011;16307;42.896;20.874;2022-12-05T08:48:59;41.90;;;23.40;;
25381;SDS011;16307;42.896;20.874;2022-12-05T08:51:45;49.40;;;23.48;;
25381;SDS011;16307;42.896;20.874;2022-12-05T08:54:32;53.08;;;27.13;;
25381;SDS011;16307;42.896;20.874;2022-12-05T08:57:17;54.75;;;27.15;;
25381;SDS011;16307;42.896;20.874;2022-12-05T09:00:04;53.22;;;26.60;;
25381;SDS011;16307;42.896;20.874;2022-12-05T09:02:51;44.75;;;24.42;;
25381;SDS011;16307;42.896;20.874;2022-12-05T09:05:37;36.03;;;21.35;;
25381;SDS011;16307;42.896;20.874;2022-12-05T09:08:23;38.40;;;21.67;;
25381;SDS011;16307;42.896;20.874;2022-12-05T09:11:10;39.28;;;21.80;;
25381;SDS011;16307;42.896;20.874;2022-12-05T09:13:58;40.28;;;22.65;;
25381;SDS011;16307;42.896;20.874;2022-12-05T09:16:45;47.03;;;24.70;;
25381;SDS011;16307;42.896;20.874;2022-12-05T09:19:32;53.25;;;25.60;;
25381;SDS011;16307;42.896;20.874;2022-12-05T09:22:18;46.83;;;25.92;;
25381;SDS011;16307;42.896;20.874;2022-12-05T09:25:04;43.25;;;23.52;;
25381;SDS011;16307;42.896;20.874;2022-12-05T09:27:50;56.83;;;25.65;;
25381;SDS011;16307;42.896;20.874;2022-12-05T09:30:36;41.08;;;23.10;;
25381;SDS011;16307;42.896;20.874;2022-12-05T09:33:22;45.50;;;23.95;;
25381;SDS011;16307;42.896;20.874;2022-12-05T09:39:03;58.83;;;28.85;;
25381;SDS011;16307;42.896;20.874;2022-12-05T09:48:15;43.22;;;21.50;;
25381;SDS011;16307;42.896;20.874;2022-12-05T09:53:47;39.00;;;21.55;;
25381;SDS011;16307;42.896;20.874;2022-12-05T09:56:33;43.75;;;23.35;;
25381;SDS011;16307;42.896;20.874;2022-12-05T09:59:19;44.00;;;23.38;;
25381;SDS011;16307;42.896;20.874;2022-12-05T10:02:11;37.42;;;21.92;;
25381;SDS011;16307;42.896;20.874;2022-12-05T10:05:14;36.45;;;21.60;;
25381;SDS011;16307;42.896;20.874;2022-12-05T10:08:18;33.85;;;19.70;;
25381;SDS011;16307;42.896;20.874;2022-12-05T10:11:17;40.97;;;19.73;;
25381;SDS011;16307;42.896;20.874;2022-12-05T10:17:29;48.28;;;19.10;;
25381;SDS011;16307;42.896;20.874;2022-12-05T10:20:18;40.00;;;17.17;;
25381;SDS011;16307;42.896;20.874;2022-12-05T10:23:11;45.60;;;17.67;;
25381;SDS011;16307;42.896;20.874;2022-12-05T10:26:22;45.63;;;19.30;;
25381;SDS011;16307;42.896;20.874;2022-12-05T10:29:27;52.85;;;19.60;;
25381;SDS011;16307;42.896;20.874;2022-12-05T10:32:20;56.13;;;20.45;;
25381;SDS011;16307;42.896;20.874;2022-12-05T10:38:18;51.08;;;18.13;;
25381;SDS011;16307;42.896;20.874;2022-12-05T10:41:09;39.78;;;17.20;;
25381;SDS011;16307;42.896;20.874;2022-12-05T10:43:57;37.25;;;17.63;;
25381;SDS011;16307;42.896;20.874;2022-12-05T10:46:44;38.70;;;17.02;;
25381;SDS011;16307;42.896;20.874;2022-12-05T10:49:30;41.67;;;17.92;;
25381;SDS011;16307;42.896;20.874;2022-12-05T10:52:17;50.53;;;18.00;;
25381;SDS011;16307;42.896;20.874;2022-12-05T10:55:04;47.38;;;19.55;;
25381;SDS011;16307;42.896;20.874;2022-12-05T10:57:51;46.17;;;20.33;;
25381;SDS011;16307;42.896;20.874;2022-12-05T11:01:08;38.97;;;18.05;;
25381;SDS011;16307;42.896;20.874;2022-12-05T11:03:59;47.28;;;20.33;;
25381;SDS011;16307;42.896;20.874;2022-12-05T11:06:54;48.60;;;19.88;;
25381;SDS011;16307;42.896;20.874;2022-12-05T11:09:42;39.55;;;18.20;;
25381;SDS011;16307;42.896;20.874;2022-12-05T11:15:22;48.17;;;21.88;;
25381;SDS011;16307;42.896;20.874;2022-12-05T11:18:17;39.40;;;20.42;;
25381;SDS011;16307;42.896;20.874;2022-12-05T11:21:10;39.10;;;20.40;;
25381;SDS011;16307;42.896;20.874;2022-12-05T11:24:00;36.83;;;19.65;;
25381;SDS011;16307;42.896;20.874;2022-12-05T11:30:14;40.70;;;19.75;;
25381;SDS011;16307;42.896;20.874;2022-12-05T11:33:19;41.45;;;17.65;;
25381;SDS011;16307;42.896;20.874;2022-12-05T11:39:03;38.20;;;18.48;;
25381;SDS011;16307;42.896;20.874;2022-12-05T11:57:36;34.35;;;16.63;;
25381;SDS011;16307;42.896;20.874;2022-12-05T12:10:01;29.27;;;14.93;;
25381;SDS011;16307;42.896;20.874;2022-12-05T12:16:18;38.58;;;17.63;;
25381;SDS011;16307;42.896;20.874;2022-12-05T12:28:36;41.47;;;20.45;;
25381;SDS011;16307;42.896;20.874;2022-12-05T12:40:52;42.60;;;19.85;;
25381;SDS011;16307;42.896;20.874;2022-12-05T12:43:57;42.03;;;21.80;;
25381;SDS011;16307;42.896;20.874;2022-12-05T12:47:00;37.42;;;20.10;;
25381;SDS011;16307;42.896;20.874;2022-12-05T12:49:55;41.72;;;20.77;;
25381;SDS011;16307;42.896;20.874;2022-12-05T12:53:26;40.50;;;20.33;;
25381;SDS011;16307;42.896;20.874;2022-12-05T13:01:52;41.17;;;21.65;;
25381;SDS011;16307;42.896;20.874;2022-12-05T13:04:57;48.95;;;23.52;;
25381;SDS011;16307;42.896;20.874;2022-12-05T13:07:46;40.83;;;19.70;;
25381;SDS011;16307;42.896;20.874;2022-12-05T13:10:37;41.65;;;22.35;;
25381;SDS011;16307;42.896;20.874;2022-12-05T13:13:33;41.90;;;21.83;;
25381;SDS011;16307;42.896;20.874;2022-12-05T13:16:35;43.08;;;21.75;;
25381;SDS011;16307;42.896;20.874;2022-12-05T13:19:50;46.97;;;22.63;;
25381;SDS011;16307;42.896;20.874;2022-12-05T13:22:37;53.95;;;26.50;;
25381;SDS011;16307;42.896;20.874;2022-12-05T13:25:23;40.60;;;22.60;;
25381;SDS011;16307;42.896;20.874;2022-12-05T13:28:25;45.78;;;21.52;;
25381;SDS011;16307;42.896;20.874;2022-12-05T13:31:11;44.50;;;22.10;;
25381;SDS011;16307;42.896;20.874;2022-12-05T13:34:01;37.50;;;18.52;;
25381;SDS011;16307;42.896;20.874;2022-12-05T13:36:48;36.10;;;19.40;;
25381;SDS011;16307;42.896;20.874;2022-12-05T13:39:53;35.08;;;18.52;;
25381;SDS011;16307;42.896;20.874;2022-12-05T13:43:00;32.45;;;17.77;;
25381;SDS011;16307;42.896;20.874;2022-12-05T13:48:59;32.50;;;17.95;;
25381;SDS011;16307;42.896;20.874;2022-12-05T13:51:51;31.15;;;17.48;;
25381;SDS011;16307;42.896;20.874;2022-12-05T13:54:45;34.08;;;18.63;;
25381;SDS011;16307;42.896;20.874;2022-12-05T14:03:16;32.83;;;16.42;;
25381;SDS011;16307;42.896;20.874;2022-12-05T14:09:28;29.30;;;16.80;;
25381;SDS011;16307;42.896;20.874;2022-12-05T14:15:01;40.17;;;21.17;;
25381;SDS011;16307;42.896;20.874;2022-12-05T14:17:48;33.83;;;18.15;;
25381;SDS011;16307;42.896;20.874;2022-12-05T14:20:43;31.73;;;16.85;;
25381;SDS011;16307;42.896;20.874;2022-12-05T14:23:41;36.35;;;17.63;;
25381;SDS011;16307;42.896;20.874;2022-12-05T14:32:19;32.72;;;16.85;;
25381;SDS011;16307;42.896;20.874;2022-12-05T14:35:12;37.58;;;17.30;;
25381;SDS011;16307;42.896;20.874;2022-12-05T14:38:01;32.67;;;16.58;;
25381;SDS011;16307;42.896;20.874;2022-12-05T14:40:49;40.28;;;16.48;;
25381;SDS011;16307;42.896;20.874;2022-12-05T14:43:36;26.70;;;15.63;;
25381;SDS011;16307;42.896;20.874;2022-12-05T14:46:24;33.38;;;18.40;;
25381;SDS011;16307;42.896;20.874;2022-12-05T14:56:21;35.90;;;16.23;;
25381;SDS011;16307;42.896;20.874;2022-12-05T15:02:10;29.17;;;15.68;;
25381;SDS011;16307;42.896;20.874;2022-12-05T15:08:02;42.83;;;20.38;;
25381;SDS011;16307;42.896;20.874;2022-12-05T15:10:49;31.50;;;16.30;;
25381;SDS011;16307;42.896;20.874;2022-12-05T15:13:37;40.35;;;17.98;;
25381;SDS011;16307;42.896;20.874;2022-12-05T15:16:23;39.85;;;17.20;;
25381;SDS011;16307;42.896;20.874;2022-12-05T15:19:53;34.20;;;15.98;;
25381;SDS011;16307;42.896;20.874;2022-12-05T15:22:25;32.15;;;15.15;;
25381;SDS011;16307;42.896;20.874;2022-12-05T15:28:16;32.78;;;15.90;;
25381;SDS011;16307;42.896;20.874;2022-12-05T15:31:03;35.63;;;18.13;;
25381;SDS011;16307;42.896;20.874;2022-12-05T15:33:51;36.88;;;20.08;;
25381;SDS011;16307;42.896;20.874;2022-12-05T15:36:46;38.30;;;19.75;;
25381;SDS011;16307;42.896;20.874;2022-12-05T15:42:43;38.63;;;18.25;;
25381;SDS011;16307;42.896;20.874;2022-12-05T15:45:30;35.63;;;19.70;;
25381;SDS011;16307;42.896;20.874;2022-12-05T15:48:16;39.13;;;21.92;;
25381;SDS011;16307;42.896;20.874;2022-12-05T15:51:07;47.33;;;24.45;;
25381;SDS011;16307;42.896;20.874;2022-12-05T15:53:56;69.75;;;36.58;;
25381;SDS011;16307;42.896;20.874;2022-12-05T15:56:45;86.20;;;41.30;;
25381;SDS011;16307;42.896;20.874;2022-12-05T15:59:37;86.78;;;41.30;;
25381;SDS011;16307;42.896;20.874;2022-12-05T16:02:31;94.13;;;42.88;;
25381;SDS011;16307;42.896;20.874;2022-12-05T16:05:35;90.68;;;41.95;;
25381;SDS011;16307;42.896;20.874;2022-12-05T16:08:24;87.85;;;39.47;;
25381;SDS011;16307;42.896;20.874;2022-12-05T16:11:14;70.50;;;31.73;;
25381;SDS011;16307;42.896;20.874;2022-12-05T16:14:02;61.30;;;30.23;;
25381;SDS011;16307;42.896;20.874;2022-12-05T16:16:50;50.60;;;26.17;;
25381;SDS011;16307;42.896;20.874;2022-12-05T16:19:44;46.22;;;22.73;;
25381;SDS011;16307;42.896;20.874;2022-12-05T16:22:31;45.55;;;22.25;;
25381;SDS011;16307;42.896;20.874;2022-12-05T16:25:36;43.17;;;20.73;;
25381;SDS011;16307;42.896;20.874;2022-12-05T16:28:22;38.97;;;19.58;;
25381;SDS011;16307;42.896;20.874;2022-12-05T16:31:12;42.42;;;21.60;;
25381;SDS011;16307;42.896;20.874;2022-12-05T16:36:50;43.53;;;20.92;;
25381;SDS011;16307;42.896;20.874;2022-12-05T16:39:42;42.10;;;20.85;;
25381;SDS011;16307;42.896;20.874;2022-12-05T16:42:29;56.97;;;26.00;;
25381;SDS011;16307;42.896;20.874;2022-12-05T16:45:35;55.25;;;27.10;;
25381;SDS011;16307;42.896;20.874;2022-12-05T16:48:25;58.35;;;29.30;;
25381;SDS011;16307;42.896;20.874;2022-12-05T16:51:18;59.53;;;29.00;;
25381;SDS011;16307;42.896;20.874;2022-12-05T16:54:06;59.67;;;30.23;;
25381;SDS011;16307;42.896;20.874;2022-12-05T16:56:52;65.60;;;30.25;;
25381;SDS011;16307;42.896;20.874;2022-12-05T16:59:39;68.85;;;32.67;;
25381;SDS011;16307;42.896;20.874;2022-12-05T17:02:27;73.15;;;34.30;;
25381;SDS011;16307;42.896;20.874;2022-12-05T17:05:14;89.97;;;40.78;;
25381;SDS011;16307;42.896;20.874;2022-12-05T17:08:01;90.25;;;42.17;;
25381;SDS011;16307;42.896;20.874;2022-12-05T17:10:48;92.20;;;41.95;;
25381;SDS011;16307;42.896;20.874;2022-12-05T17:13:34;100.15;;;43.80;;
25381;SDS011;16307;42.896;20.874;2022-12-05T17:16:20;95.57;;;43.63;;
25381;SDS011;16307;42.896;20.874;2022-12-05T17:19:07;85.57;;;38.72;;
25381;SDS011;16307;42.896;20.874;2022-12-05T17:21:54;68.75;;;34.30;;
25381;SDS011;16307;42.896;20.874;2022-12-05T17:24:41;69.80;;;35.42;;
25381;SDS011;16307;42.896;20.874;2022-12-05T17:27:27;70.90;;;35.53;;
25381;SDS011;16307;42.896;20.874;2022-12-05T17:30:13;85.78;;;39.45;;
25381;SDS011;16307;42.896;20.874;2022-12-05T17:32:59;76.57;;;38.55;;
25381;SDS011;16307;42.896;20.874;2022-12-05T17:35:45;80.40;;;40.65;;
25381;SDS011;16307;42.896;20.874;2022-12-05T17:38:31;79.60;;;39.97;;
25381;SDS011;16307;42.896;20.874;2022-12-05T17:41:18;86.53;;;42.20;;
25381;SDS011;16307;42.896;20.874;2022-12-05T17:44:06;89.63;;;41.60;;
25381;SDS011;16307;42.896;20.874;2022-12-05T17:46:52;87.22;;;42.05;;
25381;SDS011;16307;42.896;20.874;2022-12-05T17:49:38;82.18;;;39.08;;
25381;SDS011;16307;42.896;20.874;2022-12-05T17:52:23;86.38;;;40.78;;
25381;SDS011;16307;42.896;20.874;2022-12-05T17:55:14;93.63;;;41.53;;
25381;SDS011;16307;42.896;20.874;2022-12-05T17:58:02;86.72;;;43.13;;
25381;SDS011;16307;42.896;20.874;2022-12-05T18:00:49;88.20;;;44.03;;
25381;SDS011;16307;42.896;20.874;2022-12-05T18:03:35;90.25;;;42.47;;
25381;SDS011;16307;42.896;20.874;2022-12-05T18:06:21;70.68;;;33.95;;
25381;SDS011;16307;42.896;20.874;2022-12-05T18:09:07;64.80;;;29.42;;
25381;SDS011;16307;42.896;20.874;2022-12-05T18:11:53;64.35;;;30.55;;
25381;SDS011;16307;42.896;20.874;2022-12-05T18:14:41;55.90;;;27.70;;
25381;SDS011;16307;42.896;20.874;2022-12-05T18:17:27;61.00;;;29.35;;
25381;SDS011;16307;42.896;20.874;2022-12-05T18:20:13;52.78;;;25.05;;
25381;SDS011;16307;42.896;20.874;2022-12-05T18:23:00;61.55;;;25.70;;
25381;SDS011;16307;42.896;20.874;2022-12-05T18:25:55;49.45;;;23.98;;
25381;SDS011;16307;42.896;20.874;2022-12-05T18:28:43;74.28;;;26.13;;
25381;SDS011;16307;42.896;20.874;2022-12-05T18:31:31;47.15;;;22.02;;
25381;SDS011;16307;42.896;20.874;2022-12-05T18:34:17;55.03;;;26.05;;
25381;SDS011;16307;42.896;20.874;2022-12-05T18:37:03;52.75;;;23.33;;
25381;SDS011;16307;42.896;20.874;2022-12-05T18:39:49;46.33;;;22.35;;
25381;SDS011;16307;42.896;20.874;2022-12-05T18:42:36;45.17;;;20.10;;
25381;SDS011;16307;42.896;20.874;2022-12-05T18:45:21;42.95;;;19.98;;
25381;SDS011;16307;42.896;20.874;2022-12-05T18:48:08;39.38;;;17.60;;
25381;SDS011;16307;42.896;20.874;2022-12-05T18:51:15;37.25;;;17.90;;
25381;SDS011;16307;42.896;20.874;2022-12-05T18:54:06;41.67;;;19.00;;
25381;SDS011;16307;42.896;20.874;2022-12-05T18:56:52;35.30;;;17.42;;
25381;SDS011;16307;42.896;20.874;2022-12-05T18:59:38;36.47;;;18.45;;
25381;SDS011;16307;42.896;20.874;2022-12-05T19:02:23;33.10;;;16.58;;
25381;SDS011;16307;42.896;20.874;2022-12-05T19:05:10;41.55;;;18.40;;
25381;SDS011;16307;42.896;20.874;2022-12-05T19:07:56;41.78;;;19.98;;
25381;SDS011;16307;42.896;20.874;2022-12-05T19:10:42;42.17;;;20.00;;
25381;SDS011;16307;42.896;20.874;2022-12-05T19:13:27;40.80;;;18.20;;
25381;SDS011;16307;42.896;20.874;2022-12-05T19:16:13;29.95;;;14.65;;
25381;SDS011;16307;42.896;20.874;2022-12-05T19:19:06;40.78;;;17.15;;